sensor_id;sensor_type;location;lat;lon;timestamp;P1;durP1;ratioP1;P2;durP2;ratioP2
2944;SDS011;1482;51.398;7.128;2023-02-28T00:00:18;7.50;;;5.20;;
2944;SDS011;1482;51.398;7.128;2023-02-28T00:02:45;8.20;;;5.50;;
2944;SDS011;1482;51.398;7.128;2023-02-28T00:05:12;8.57;;;5.17;;
2944;SDS011;1482;51.398;7.128;2023-02-28T00:07:39;8.67;;;5.70;;
2944;SDS011;1482;51.398;7.128;2023-02-28T00:10:05;6.63;;;5.20;;
2944;SDS011;1482;51.398;7.128;2023-02-28T00:12:33;18.00;;;6.60;;
2944;SDS011;1482;51.398;7.128;2023-02-28T00:14:59;8.83;;;5.50;;
2944;SDS011;1482;51.398;7.128;2023-02-28T00:17:25;8.87;;;5.83;;
2944;SDS011;1482;51.398;7.128;2023-02-28T00:19:50;6.10;;;5.47;;
2944;SDS011;1482;51.398;7.128;2023-02-28T00:22:17;9.77;;;6.30;;
2944;SDS011;1482;51.398;7.128;2023-02-28T00:24:44;8.27;;;5.47;;
2944;SDS011;1482;51.398;7.128;2023-02-28T00:27:10;5.83;;;5.27;;
2944;SDS011;1482;51.398;7.128;2023-02-28T00:29:36;6.40;;;5.07;;
2944;SDS011;1482;51.398;7.128;2023-02-28T00:32:02;9.97;;;5.90;;
2944;SDS011;1482;51.398;7.128;2023-02-28T00:34:28;9.67;;;5.67;;
2944;SDS011;1482;51.398;7.128;2023-02-28T00:36:54;9.23;;;5.57;;
2944;SDS011;1482;51.398;7.128;2023-02-28T00:39:20;7.20;;;6.03;;
2944;SDS011;1482;51.398;7.128;2023-02-28T00:41:46;7.43;;;5.87;;
2944;SDS011;1482;51.398;7.128;2023-02-28T00:44:11;7.43;;;4.90;;
2944;SDS011;1482;51.398;7.128;2023-02-28T00:46:37;8.63;;;6.10;;
2944;SDS011;1482;51.398;7.128;2023-02-28T00:49:02;11.10;;;6.30;;
2944;SDS011;1482;51.398;7.128;2023-02-28T00:51:28;10.63;;;5.80;;
2944;SDS011;1482;51.398;7.128;2023-02-28T00:53:53;12.17;;;6.30;;
2944;SDS011;1482;51.398;7.128;2023-02-28T00:56:19;9.10;;;6.80;;
2944;SDS011;1482;51.398;7.128;2023-02-28T00:58:45;7.60;;;5.90;;
2944;SDS011;1482;51.398;7.128;2023-02-28T01:01:10;7.40;;;6.57;;
2944;SDS011;1482;51.398;7.128;2023-02-28T01:03:36;10.30;;;6.37;;
2944;SDS011;1482;51.398;7.128;2023-02-28T01:06:02;9.50;;;5.93;;
2944;SDS011;1482;51.398;7.128;2023-02-28T01:08:27;16.00;;;8.03;;
2944;SDS011;1482;51.398;7.128;2023-02-28T01:10:53;8.57;;;6.07;;
2944;SDS011;1482;51.398;7.128;2023-02-28T01:13:19;7.70;;;5.77;;
2944;SDS011;1482;51.398;7.128;2023-02-28T01:15:51;13.00;;;6.80;;
2944;SDS011;1482;51.398;7.128;2023-02-28T01:18:20;6.93;;;5.67;;
2944;SDS011;1482;51.398;7.128;2023-02-28T01:20:46;8.93;;;6.50;;
2944;SDS011;1482;51.398;7.128;2023-02-28T01:23:12;7.93;;;6.33;;
2944;SDS011;1482;51.398;7.128;2023-02-28T01:25:38;9.40;;;6.97;;
2944;SDS011;1482;51.398;7.128;2023-02-28T01:28:04;6.97;;;5.20;;
2944;SDS011;1482;51.398;7.128;2023-02-28T01:30:30;10.70;;;5.43;;
2944;SDS011;1482;51.398;7.128;2023-02-28T01:32:56;8.47;;;6.50;;
2944;SDS011;1482;51.398;7.128;2023-02-28T01:35:22;9.67;;;6.00;;
2944;SDS011;1482;51.398;7.128;2023-02-28T01:37:48;7.83;;;5.90;;
2944;SDS011;1482;51.398;7.128;2023-02-28T01:40:13;11.43;;;5.30;;
2944;SDS011;1482;51.398;7.128;2023-02-28T01:42:39;9.17;;;5.70;;
2944;SDS011;1482;51.398;7.128;2023-02-28T01:47:50;7.33;;;5.63;;
2944;SDS011;1482;51.398;7.128;2023-02-28T01:50:21;5.50;;;4.63;;
2944;SDS011;1482;51.398;7.128;2023-02-28T01:52:49;9.67;;;4.90;;
2944;SDS011;1482;51.398;7.128;2023-02-28T01:55:17;7.30;;;5.10;;
2944;SDS011;1482;51.398;7.128;2023-02-28T01:57:46;10.00;;;5.73;;
2944;SDS011;1482;51.398;7.128;2023-02-28T02:00:18;9.17;;;5.10;;
2944;SDS011;1482;51.398;7.128;2023-02-28T02:02:47;10.27;;;5.30;;
2944;SDS011;1482;51.398;7.128;2023-02-28T02:05:19;8.10;;;5.10;;
2944;SDS011;1482;51.398;7.128;2023-02-28T02:07:50;5.77;;;5.17;;
2944;SDS011;1482;51.398;7.128;2023-02-28T02:10:20;9.43;;;5.90;;
2944;SDS011;1482;51.398;7.128;2023-02-28T02:15:37;10.30;;;4.97;;
2944;SDS011;1482;51.398;7.128;2023-02-28T02:18:12;8.27;;;4.87;;
2944;SDS011;1482;51.398;7.128;2023-02-28T02:21:25;16.87;;;7.30;;
2944;SDS011;1482;51.398;7.128;2023-02-28T02:30:19;9.67;;;5.43;;
2944;SDS011;1482;51.398;7.128;2023-02-28T02:33:31;8.83;;;5.03;;
2944;SDS011;1482;51.398;7.128;2023-02-28T02:36:07;6.50;;;5.20;;
2944;SDS011;1482;51.398;7.128;2023-02-28T02:38:38;13.73;;;6.37;;
2944;SDS011;1482;51.398;7.128;2023-02-28T02:41:18;5.57;;;4.97;;
2944;SDS011;1482;51.398;7.128;2023-02-28T02:43:50;12.20;;;5.80;;
2944;SDS011;1482;51.398;7.128;2023-02-28T02:46:37;11.23;;;6.00;;
2944;SDS011;1482;51.398;7.128;2023-02-28T02:49:08;10.80;;;7.57;;
2944;SDS011;1482;51.398;7.128;2023-02-28T02:51:37;10.60;;;7.00;;
2944;SDS011;1482;51.398;7.128;2023-02-28T02:54:05;8.57;;;5.80;;
2944;SDS011;1482;51.398;7.128;2023-02-28T02:56:35;9.20;;;5.50;;
2944;SDS011;1482;51.398;7.128;2023-02-28T02:59:04;6.93;;;5.40;;
2944;SDS011;1482;51.398;7.128;2023-02-28T03:01:34;5.53;;;4.67;;
2944;SDS011;1482;51.398;7.128;2023-02-28T03:04:02;8.03;;;5.70;;
2944;SDS011;1482;51.398;7.128;2023-02-28T03:06:30;13.27;;;7.63;;
2944;SDS011;1482;51.398;7.128;2023-02-28T03:08:55;11.33;;;6.27;;
2944;SDS011;1482;51.398;7.128;2023-02-28T03:11:21;12.30;;;7.33;;
2944;SDS011;1482;51.398;7.128;2023-02-28T03:24:19;7.10;;;5.03;;
2944;SDS011;1482;51.398;7.128;2023-02-28T03:27:01;7.77;;;5.03;;
2944;SDS011;1482;51.398;7.128;2023-02-28T03:29:34;7.97;;;5.27;;
2944;SDS011;1482;51.398;7.128;2023-02-28T03:32:05;8.97;;;5.27;;
2944;SDS011;1482;51.398;7.128;2023-02-28T03:34:41;7.00;;;5.40;;
2944;SDS011;1482;51.398;7.128;2023-02-28T03:37:14;13.03;;;5.27;;
2944;SDS011;1482;51.398;7.128;2023-02-28T03:39:46;6.27;;;4.90;;
2944;SDS011;1482;51.398;7.128;2023-02-28T03:42:20;13.90;;;5.33;;
2944;SDS011;1482;51.398;7.128;2023-02-28T03:44:53;6.40;;;5.77;;
2944;SDS011;1482;51.398;7.128;2023-02-28T03:47:32;11.80;;;5.23;;
2944;SDS011;1482;51.398;7.128;2023-02-28T03:50:10;6.70;;;5.40;;
2944;SDS011;1482;51.398;7.128;2023-02-28T03:52:47;8.50;;;5.90;;
2944;SDS011;1482;51.398;7.128;2023-02-28T03:55:19;7.40;;;5.23;;
2944;SDS011;1482;51.398;7.128;2023-02-28T04:00:25;9.93;;;5.40;;
2944;SDS011;1482;51.398;7.128;2023-02-28T04:02:53;7.30;;;5.97;;
2944;SDS011;1482;51.398;7.128;2023-02-28T04:05:19;6.27;;;5.67;;
2944;SDS011;1482;51.398;7.128;2023-02-28T04:07:46;9.10;;;7.23;;
2944;SDS011;1482;51.398;7.128;2023-02-28T04:10:11;8.13;;;4.73;;
2944;SDS011;1482;51.398;7.128;2023-02-28T04:12:38;7.40;;;5.63;;
2944;SDS011;1482;51.398;7.128;2023-02-28T04:15:03;5.80;;;4.47;;
2944;SDS011;1482;51.398;7.128;2023-02-28T04:17:29;6.57;;;4.77;;
2944;SDS011;1482;51.398;7.128;2023-02-28T04:19:55;10.20;;;5.57;;
2944;SDS011;1482;51.398;7.128;2023-02-28T04:22:22;7.10;;;5.80;;
2944;SDS011;1482;51.398;7.128;2023-02-28T04:24:50;8.50;;;5.40;;
2944;SDS011;1482;51.398;7.128;2023-02-28T04:27:16;8.03;;;5.90;;
2944;SDS011;1482;51.398;7.128;2023-02-28T04:29:41;6.73;;;5.60;;
2944;SDS011;1482;51.398;7.128;2023-02-28T04:32:09;8.13;;;5.20;;
2944;SDS011;1482;51.398;7.128;2023-02-28T04:34:35;12.13;;;5.00;;
2944;SDS011;1482;51.398;7.128;2023-02-28T04:37:01;11.00;;;6.10;;
2944;SDS011;1482;51.398;7.128;2023-02-28T04:39:27;9.73;;;6.60;;
2944;SDS011;1482;51.398;7.128;2023-02-28T04:41:54;9.23;;;4.90;;
2944;SDS011;1482;51.398;7.128;2023-02-28T04:44:20;6.70;;;5.40;;
2944;SDS011;1482;51.398;7.128;2023-02-28T04:46:47;8.83;;;6.10;;
2944;SDS011;1482;51.398;7.128;2023-02-28T04:49:13;8.60;;;5.77;;
2944;SDS011;1482;51.398;7.128;2023-02-28T04:51:39;10.00;;;6.30;;
2944;SDS011;1482;51.398;7.128;2023-02-28T04:54:05;9.03;;;5.40;;
2944;SDS011;1482;51.398;7.128;2023-02-28T04:56:31;10.33;;;5.63;;
2944;SDS011;1482;51.398;7.128;2023-02-28T04:58:57;7.13;;;5.60;;
2944;SDS011;1482;51.398;7.128;2023-02-28T05:03:48;6.13;;;5.53;;
2944;SDS011;1482;51.398;7.128;2023-02-28T05:06:15;11.63;;;4.73;;
2944;SDS011;1482;51.398;7.128;2023-02-28T05:08:41;6.00;;;4.57;;
2944;SDS011;1482;51.398;7.128;2023-02-28T05:11:12;10.30;;;5.83;;
2944;SDS011;1482;51.398;7.128;2023-02-28T05:13:40;7.50;;;5.47;;
2944;SDS011;1482;51.398;7.128;2023-02-28T05:16:06;7.73;;;4.50;;
2944;SDS011;1482;51.398;7.128;2023-02-28T05:18:31;6.30;;;4.70;;
2944;SDS011;1482;51.398;7.128;2023-02-28T05:20:57;11.60;;;5.10;;
2944;SDS011;1482;51.398;7.128;2023-02-28T05:23:22;7.90;;;5.50;;
2944;SDS011;1482;51.398;7.128;2023-02-28T05:25:48;5.70;;;5.20;;
2944;SDS011;1482;51.398;7.128;2023-02-28T05:28:14;10.80;;;5.73;;
2944;SDS011;1482;51.398;7.128;2023-02-28T05:30:39;7.33;;;4.87;;
2944;SDS011;1482;51.398;7.128;2023-02-28T05:33:05;6.80;;;5.33;;
2944;SDS011;1482;51.398;7.128;2023-02-28T05:35:30;11.00;;;5.50;;
2944;SDS011;1482;51.398;7.128;2023-02-28T05:37:56;6.27;;;5.20;;
2944;SDS011;1482;51.398;7.128;2023-02-28T05:40:22;9.10;;;4.90;;
2944;SDS011;1482;51.398;7.128;2023-02-28T05:42:49;15.27;;;6.60;;
2944;SDS011;1482;51.398;7.128;2023-02-28T05:45:15;6.40;;;5.10;;
2944;SDS011;1482;51.398;7.128;2023-02-28T05:47:42;6.30;;;5.13;;
2944;SDS011;1482;51.398;7.128;2023-02-28T05:50:07;5.40;;;3.93;;
2944;SDS011;1482;51.398;7.128;2023-02-28T05:52:35;5.33;;;3.97;;
2944;SDS011;1482;51.398;7.128;2023-02-28T05:55:01;6.00;;;4.93;;
2944;SDS011;1482;51.398;7.128;2023-02-28T05:57:26;7.73;;;5.20;;
2944;SDS011;1482;51.398;7.128;2023-02-28T05:59:52;7.17;;;5.07;;
2944;SDS011;1482;51.398;7.128;2023-02-28T06:02:17;10.93;;;5.47;;
2944;SDS011;1482;51.398;7.128;2023-02-28T06:04:43;6.73;;;4.93;;
2944;SDS011;1482;51.398;7.128;2023-02-28T06:07:09;7.17;;;5.33;;
2944;SDS011;1482;51.398;7.128;2023-02-28T06:09:35;6.90;;;5.30;;
2944;SDS011;1482;51.398;7.128;2023-02-28T06:12:02;7.07;;;5.03;;
2944;SDS011;1482;51.398;7.128;2023-02-28T06:14:30;6.20;;;4.90;;
2944;SDS011;1482;51.398;7.128;2023-02-28T06:16:57;5.80;;;4.80;;
2944;SDS011;1482;51.398;7.128;2023-02-28T06:19:23;8.10;;;4.17;;
2944;SDS011;1482;51.398;7.128;2023-02-28T06:21:52;6.77;;;5.20;;
2944;SDS011;1482;51.398;7.128;2023-02-28T06:24:19;7.20;;;4.90;;
2944;SDS011;1482;51.398;7.128;2023-02-28T06:26:45;4.93;;;4.50;;
2944;SDS011;1482;51.398;7.128;2023-02-28T06:29:11;6.90;;;4.93;;
2944;SDS011;1482;51.398;7.128;2023-02-28T06:31:37;4.83;;;4.43;;
2944;SDS011;1482;51.398;7.128;2023-02-28T06:34:03;14.33;;;4.50;;
2944;SDS011;1482;51.398;7.128;2023-02-28T06:36:30;9.60;;;6.27;;
2944;SDS011;1482;51.398;7.128;2023-02-28T06:38:56;6.30;;;5.30;;
2944;SDS011;1482;51.398;7.128;2023-02-28T06:41:24;7.83;;;4.57;;
2944;SDS011;1482;51.398;7.128;2023-02-28T06:43:51;5.57;;;4.23;;
2944;SDS011;1482;51.398;7.128;2023-02-28T06:46:16;5.53;;;4.97;;
2944;SDS011;1482;51.398;7.128;2023-02-28T06:48:43;6.43;;;4.87;;
2944;SDS011;1482;51.398;7.128;2023-02-28T06:51:13;7.00;;;4.60;;
2944;SDS011;1482;51.398;7.128;2023-02-28T06:53:41;4.93;;;4.50;;
2944;SDS011;1482;51.398;7.128;2023-02-28T06:56:08;8.63;;;5.10;;
2944;SDS011;1482;51.398;7.128;2023-02-28T06:58:36;20.33;;;7.87;;
2944;SDS011;1482;51.398;7.128;2023-02-28T07:01:02;12.83;;;5.90;;
2944;SDS011;1482;51.398;7.128;2023-02-28T07:03:28;8.07;;;6.03;;
2944;SDS011;1482;51.398;7.128;2023-02-28T07:05:54;7.37;;;5.30;;
2944;SDS011;1482;51.398;7.128;2023-02-28T07:08:21;6.53;;;4.87;;
2944;SDS011;1482;51.398;7.128;2023-02-28T07:10:47;5.47;;;4.53;;
2944;SDS011;1482;51.398;7.128;2023-02-28T07:13:17;7.00;;;4.33;;
2944;SDS011;1482;51.398;7.128;2023-02-28T07:15:42;11.23;;;5.17;;
2944;SDS011;1482;51.398;7.128;2023-02-28T07:18:08;9.07;;;5.07;;
2944;SDS011;1482;51.398;7.128;2023-02-28T07:20:33;7.10;;;3.97;;
2944;SDS011;1482;51.398;7.128;2023-02-28T07:22:59;5.83;;;4.40;;
2944;SDS011;1482;51.398;7.128;2023-02-28T07:25:25;4.23;;;3.63;;
2944;SDS011;1482;51.398;7.128;2023-02-28T07:27:52;4.63;;;4.00;;
2944;SDS011;1482;51.398;7.128;2023-02-28T07:30:19;5.47;;;3.87;;
2944;SDS011;1482;51.398;7.128;2023-02-28T07:32:45;7.53;;;4.63;;
2944;SDS011;1482;51.398;7.128;2023-02-28T07:35:10;4.63;;;4.23;;
2944;SDS011;1482;51.398;7.128;2023-02-28T07:37:36;5.30;;;4.60;;
2944;SDS011;1482;51.398;7.128;2023-02-28T07:40:03;5.07;;;4.57;;
2944;SDS011;1482;51.398;7.128;2023-02-28T07:42:31;4.63;;;4.17;;
2944;SDS011;1482;51.398;7.128;2023-02-28T07:44:57;4.80;;;4.20;;
2944;SDS011;1482;51.398;7.128;2023-02-28T07:47:23;4.20;;;3.80;;
2944;SDS011;1482;51.398;7.128;2023-02-28T07:49:49;4.30;;;3.90;;
2944;SDS011;1482;51.398;7.128;2023-02-28T07:52:15;10.03;;;3.97;;
2944;SDS011;1482;51.398;7.128;2023-02-28T07:54:40;4.80;;;4.27;;
2944;SDS011;1482;51.398;7.128;2023-02-28T07:57:06;4.87;;;4.37;;
2944;SDS011;1482;51.398;7.128;2023-02-28T07:59:32;4.60;;;4.30;;
2944;SDS011;1482;51.398;7.128;2023-02-28T08:01:58;8.67;;;4.40;;
2944;SDS011;1482;51.398;7.128;2023-02-28T08:04:24;5.40;;;4.40;;
2944;SDS011;1482;51.398;7.128;2023-02-28T08:06:49;4.50;;;3.83;;
2944;SDS011;1482;51.398;7.128;2023-02-28T08:09:16;3.93;;;3.60;;
2944;SDS011;1482;51.398;7.128;2023-02-28T08:11:42;4.60;;;4.20;;
2944;SDS011;1482;51.398;7.128;2023-02-28T08:14:08;4.10;;;3.70;;
2944;SDS011;1482;51.398;7.128;2023-02-28T08:16:33;7.30;;;6.60;;
2944;SDS011;1482;51.398;7.128;2023-02-28T08:18:59;8.50;;;6.23;;
2944;SDS011;1482;51.398;7.128;2023-02-28T08:21:24;6.33;;;5.60;;
2944;SDS011;1482;51.398;7.128;2023-02-28T08:23:50;6.83;;;5.57;;
2944;SDS011;1482;51.398;7.128;2023-02-28T08:26:16;6.20;;;5.60;;
2944;SDS011;1482;51.398;7.128;2023-02-28T08:28:43;6.50;;;6.00;;
2944;SDS011;1482;51.398;7.128;2023-02-28T08:31:09;5.90;;;5.40;;
2944;SDS011;1482;51.398;7.128;2023-02-28T08:33:37;6.23;;;5.63;;
2944;SDS011;1482;51.398;7.128;2023-02-28T08:36:04;6.53;;;5.90;;
2944;SDS011;1482;51.398;7.128;2023-02-28T08:38:30;5.63;;;5.20;;
2944;SDS011;1482;51.398;7.128;2023-02-28T08:41:00;4.20;;;3.87;;
2944;SDS011;1482;51.398;7.128;2023-02-28T08:43:27;6.70;;;4.73;;
2944;SDS011;1482;51.398;7.128;2023-02-28T08:45:53;4.90;;;4.37;;
2944;SDS011;1482;51.398;7.128;2023-02-28T08:48:21;4.57;;;4.10;;
2944;SDS011;1482;51.398;7.128;2023-02-28T08:50:55;6.40;;;4.00;;
2944;SDS011;1482;51.398;7.128;2023-02-28T08:53:28;3.40;;;3.10;;
2944;SDS011;1482;51.398;7.128;2023-02-28T08:58:23;3.13;;;2.83;;
2944;SDS011;1482;51.398;7.128;2023-02-28T09:00:48;5.20;;;3.10;;
2944;SDS011;1482;51.398;7.128;2023-02-28T09:03:15;3.60;;;3.00;;
2944;SDS011;1482;51.398;7.128;2023-02-28T09:05:40;4.17;;;3.60;;
2944;SDS011;1482;51.398;7.128;2023-02-28T09:08:06;3.03;;;2.70;;
2944;SDS011;1482;51.398;7.128;2023-02-28T09:10:31;3.73;;;2.90;;
2944;SDS011;1482;51.398;7.128;2023-02-28T09:12:57;3.33;;;3.03;;
2944;SDS011;1482;51.398;7.128;2023-02-28T09:15:22;3.90;;;3.50;;
2944;SDS011;1482;51.398;7.128;2023-02-28T09:17:48;5.00;;;3.07;;
2944;SDS011;1482;51.398;7.128;2023-02-28T09:20:13;3.40;;;3.07;;
2944;SDS011;1482;51.398;7.128;2023-02-28T09:22:39;3.87;;;3.47;;
2944;SDS011;1482;51.398;7.128;2023-02-28T09:25:04;4.63;;;2.90;;
2944;SDS011;1482;51.398;7.128;2023-02-28T09:27:30;3.57;;;3.27;;
2944;SDS011;1482;51.398;7.128;2023-02-28T09:29:56;4.13;;;3.17;;
2944;SDS011;1482;51.398;7.128;2023-02-28T09:32:21;3.70;;;2.67;;
2944;SDS011;1482;51.398;7.128;2023-02-28T09:34:47;3.23;;;2.87;;
2944;SDS011;1482;51.398;7.128;2023-02-28T09:37:12;4.67;;;2.40;;
2944;SDS011;1482;51.398;7.128;2023-02-28T09:39:38;3.90;;;3.20;;
2944;SDS011;1482;51.398;7.128;2023-02-28T09:42:03;7.00;;;3.10;;
2944;SDS011;1482;51.398;7.128;2023-02-28T09:44:39;7.57;;;3.10;;
2944;SDS011;1482;51.398;7.128;2023-02-28T09:47:29;4.50;;;2.70;;
2944;SDS011;1482;51.398;7.128;2023-02-28T09:50:15;3.33;;;3.03;;
2944;SDS011;1482;51.398;7.128;2023-02-28T09:52:48;10.13;;;3.20;;
2944;SDS011;1482;51.398;7.128;2023-02-28T09:57:49;3.03;;;2.63;;
2944;SDS011;1482;51.398;7.128;2023-02-28T10:00:20;7.30;;;3.30;;
2944;SDS011;1482;51.398;7.128;2023-02-28T10:12:04;3.40;;;2.70;;
2944;SDS011;1482;51.398;7.128;2023-02-28T10:14:34;4.83;;;3.17;;
2944;SDS011;1482;51.398;7.128;2023-02-28T10:19:40;5.20;;;3.00;;
2944;SDS011;1482;51.398;7.128;2023-02-28T10:22:37;2.93;;;2.63;;
2944;SDS011;1482;51.398;7.128;2023-02-28T10:25:17;3.17;;;2.87;;
2944;SDS011;1482;51.398;7.128;2023-02-28T10:27:45;4.40;;;3.40;;
2944;SDS011;1482;51.398;7.128;2023-02-28T10:30:11;2.83;;;2.63;;
2944;SDS011;1482;51.398;7.128;2023-02-28T10:32:39;3.80;;;3.17;;
2944;SDS011;1482;51.398;7.128;2023-02-28T10:37:37;3.20;;;2.60;;
2944;SDS011;1482;51.398;7.128;2023-02-28T10:40:04;3.87;;;2.30;;
2944;SDS011;1482;51.398;7.128;2023-02-28T10:42:31;2.27;;;2.07;;
2944;SDS011;1482;51.398;7.128;2023-02-28T10:45:09;2.87;;;2.10;;
2944;SDS011;1482;51.398;7.128;2023-02-28T10:47:49;3.93;;;2.33;;
2944;SDS011;1482;51.398;7.128;2023-02-28T10:53:16;5.23;;;1.73;;
2944;SDS011;1482;51.398;7.128;2023-02-28T11:01:39;2.57;;;2.30;;
2944;SDS011;1482;51.398;7.128;2023-02-28T11:04:16;2.37;;;1.80;;
2944;SDS011;1482;51.398;7.128;2023-02-28T11:06:44;2.50;;;2.30;;
2944;SDS011;1482;51.398;7.128;2023-02-28T11:09:18;3.47;;;1.50;;
2944;SDS011;1482;51.398;7.128;2023-02-28T11:11:49;3.07;;;2.17;;
2944;SDS011;1482;51.398;7.128;2023-02-28T11:14:49;4.30;;;2.60;;
2944;SDS011;1482;51.398;7.128;2023-02-28T11:17:28;3.40;;;1.97;;
2944;SDS011;1482;51.398;7.128;2023-02-28T11:20:03;2.37;;;2.17;;
2944;SDS011;1482;51.398;7.128;2023-02-28T11:22:32;1.63;;;1.50;;
2944;SDS011;1482;51.398;7.128;2023-02-28T11:25:06;3.07;;;2.40;;
2944;SDS011;1482;51.398;7.128;2023-02-28T11:27:51;2.47;;;1.80;;
2944;SDS011;1482;51.398;7.128;2023-02-28T11:32:49;5.53;;;2.33;;
2944;SDS011;1482;51.398;7.128;2023-02-28T11:35:35;1.93;;;1.83;;
2944;SDS011;1482;51.398;7.128;2023-02-28T11:38:05;3.97;;;2.90;;
2944;SDS011;1482;51.398;7.128;2023-02-28T11:51:47;3.77;;;1.87;;
2944;SDS011;1482;51.398;7.128;2023-02-28T12:00:14;2.87;;;1.90;;
2944;SDS011;1482;51.398;7.128;2023-02-28T12:06:13;2.10;;;1.90;;
2944;SDS011;1482;51.398;7.128;2023-02-28T12:08:57;2.50;;;2.30;;
2944;SDS011;1482;51.398;7.128;2023-02-28T12:15:04;2.10;;;1.80;;
2944;SDS011;1482;51.398;7.128;2023-02-28T12:20:21;8.20;;;2.50;;
2944;SDS011;1482;51.398;7.128;2023-02-28T12:28:11;3.47;;;2.43;;
2944;SDS011;1482;51.398;7.128;2023-02-28T12:30:42;3.10;;;2.40;;
2944;SDS011;1482;51.398;7.128;2023-02-28T12:33:16;2.90;;;2.63;;
2944;SDS011;1482;51.398;7.128;2023-02-28T12:35:57;2.67;;;2.47;;
2944;SDS011;1482;51.398;7.128;2023-02-28T12:38:29;3.07;;;2.80;;
2944;SDS011;1482;51.398;7.128;2023-02-28T12:40:56;2.57;;;2.37;;
2944;SDS011;1482;51.398;7.128;2023-02-28T12:43:31;4.20;;;3.03;;
2944;SDS011;1482;51.398;7.128;2023-02-28T12:46:12;3.80;;;2.90;;
2944;SDS011;1482;51.398;7.128;2023-02-28T12:48:47;2.30;;;2.10;;
2944;SDS011;1482;51.398;7.128;2023-02-28T12:51:17;3.03;;;2.60;;
2944;SDS011;1482;51.398;7.128;2023-02-28T12:53:56;3.27;;;2.97;;
2944;SDS011;1482;51.398;7.128;2023-02-28T12:59:14;4.03;;;2.60;;
2944;SDS011;1482;51.398;7.128;2023-02-28T13:02:25;4.03;;;2.70;;
2944;SDS011;1482;51.398;7.128;2023-02-28T13:05:06;5.23;;;3.33;;
2944;SDS011;1482;51.398;7.128;2023-02-28T13:10:21;3.33;;;2.60;;
2944;SDS011;1482;51.398;7.128;2023-02-28T13:12:50;4.13;;;2.80;;
2944;SDS011;1482;51.398;7.128;2023-02-28T13:17:53;2.33;;;2.10;;
2944;SDS011;1482;51.398;7.128;2023-02-28T13:20:24;4.90;;;2.63;;
2944;SDS011;1482;51.398;7.128;2023-02-28T13:22:59;4.00;;;2.43;;
2944;SDS011;1482;51.398;7.128;2023-02-28T13:28:13;3.10;;;2.73;;
2944;SDS011;1482;51.398;7.128;2023-02-28T13:31:13;4.70;;;3.27;;
2944;SDS011;1482;51.398;7.128;2023-02-28T13:36:23;3.03;;;2.70;;
2944;SDS011;1482;51.398;7.128;2023-02-28T13:39:01;3.30;;;3.10;;
2944;SDS011;1482;51.398;7.128;2023-02-28T13:46:31;4.20;;;2.90;;
2944;SDS011;1482;51.398;7.128;2023-02-28T13:57:11;3.13;;;2.83;;
2944;SDS011;1482;51.398;7.128;2023-02-28T13:59:46;4.43;;;2.87;;
2944;SDS011;1482;51.398;7.128;2023-02-28T14:02:33;5.57;;;2.90;;
2944;SDS011;1482;51.398;7.128;2023-02-28T14:05:31;6.47;;;2.60;;
2944;SDS011;1482;51.398;7.128;2023-02-28T14:07:59;3.50;;;3.20;;
2944;SDS011;1482;51.398;7.128;2023-02-28T14:10:50;4.10;;;3.70;;
2944;SDS011;1482;51.398;7.128;2023-02-28T14:13:38;3.43;;;2.80;;
2944;SDS011;1482;51.398;7.128;2023-02-28T14:16:23;4.00;;;3.50;;
2944;SDS011;1482;51.398;7.128;2023-02-28T14:18:56;4.67;;;3.30;;
2944;SDS011;1482;51.398;7.128;2023-02-28T14:21:32;4.50;;;2.93;;
2944;SDS011;1482;51.398;7.128;2023-02-28T14:29:37;3.63;;;3.33;;
2944;SDS011;1482;51.398;7.128;2023-02-28T14:35:03;3.60;;;3.30;;
2944;SDS011;1482;51.398;7.128;2023-02-28T14:37:41;3.70;;;3.40;;
2944;SDS011;1482;51.398;7.128;2023-02-28T14:40:19;5.10;;;3.20;;
2944;SDS011;1482;51.398;7.128;2023-02-28T14:42:58;3.60;;;3.30;;
2944;SDS011;1482;51.398;7.128;2023-02-28T14:45:26;3.40;;;3.10;;
2944;SDS011;1482;51.398;7.128;2023-02-28T14:47:55;6.93;;;3.40;;
2944;SDS011;1482;51.398;7.128;2023-02-28T14:50:24;3.70;;;3.40;;
2944;SDS011;1482;51.398;7.128;2023-02-28T14:52:57;4.07;;;3.20;;
2944;SDS011;1482;51.398;7.128;2023-02-28T14:55:25;3.87;;;3.43;;
2944;SDS011;1482;51.398;7.128;2023-02-28T14:57:55;3.07;;;2.87;;
2944;SDS011;1482;51.398;7.128;2023-02-28T15:00:36;3.57;;;3.27;;
2944;SDS011;1482;51.398;7.128;2023-02-28T15:03:20;4.17;;;3.33;;
2944;SDS011;1482;51.398;7.128;2023-02-28T15:06:01;4.07;;;3.63;;
2944;SDS011;1482;51.398;7.128;2023-02-28T15:08:37;10.20;;;4.40;;
2944;SDS011;1482;51.398;7.128;2023-02-28T15:11:12;4.30;;;3.30;;
2944;SDS011;1482;51.398;7.128;2023-02-28T15:16:18;4.20;;;3.77;;
2944;SDS011;1482;51.398;7.128;2023-02-28T15:19:17;4.13;;;3.70;;
2944;SDS011;1482;51.398;7.128;2023-02-28T15:21:45;6.17;;;3.83;;
2944;SDS011;1482;51.398;7.128;2023-02-28T15:27:03;9.73;;;3.23;;
2944;SDS011;1482;51.398;7.128;2023-02-28T15:29:33;5.13;;;3.40;;
2944;SDS011;1482;51.398;7.128;2023-02-28T15:32:07;6.33;;;4.10;;
2944;SDS011;1482;51.398;7.128;2023-02-28T15:34:43;6.30;;;4.70;;
2944;SDS011;1482;51.398;7.128;2023-02-28T15:40:11;6.00;;;3.87;;
2944;SDS011;1482;51.398;7.128;2023-02-28T15:42:38;4.73;;;3.90;;
2944;SDS011;1482;51.398;7.128;2023-02-28T15:45:04;5.80;;;3.80;;
2944;SDS011;1482;51.398;7.128;2023-02-28T15:47:30;5.90;;;4.10;;
2944;SDS011;1482;51.398;7.128;2023-02-28T15:52:33;4.00;;;3.70;;
2944;SDS011;1482;51.398;7.128;2023-02-28T15:57:45;6.40;;;3.90;;
2944;SDS011;1482;51.398;7.128;2023-02-28T16:00:16;4.53;;;3.80;;
2944;SDS011;1482;51.398;7.128;2023-02-28T16:02:44;5.70;;;4.13;;
2944;SDS011;1482;51.398;7.128;2023-02-28T16:07:36;5.90;;;4.70;;
2944;SDS011;1482;51.398;7.128;2023-02-28T16:10:07;6.77;;;4.47;;
2944;SDS011;1482;51.398;7.128;2023-02-28T16:12:35;9.30;;;4.50;;
2944;SDS011;1482;51.398;7.128;2023-02-28T16:15:06;4.90;;;3.87;;
2944;SDS011;1482;51.398;7.128;2023-02-28T16:17:45;6.90;;;4.77;;
2944;SDS011;1482;51.398;7.128;2023-02-28T16:20:12;6.60;;;4.07;;
2944;SDS011;1482;51.398;7.128;2023-02-28T16:22:44;4.67;;;4.23;;
2944;SDS011;1482;51.398;7.128;2023-02-28T16:25:14;7.97;;;3.70;;
2944;SDS011;1482;51.398;7.128;2023-02-28T16:28:01;5.33;;;3.60;;
2944;SDS011;1482;51.398;7.128;2023-02-28T16:30:27;4.17;;;3.47;;
2944;SDS011;1482;51.398;7.128;2023-02-28T16:32:56;5.10;;;4.57;;
2944;SDS011;1482;51.398;7.128;2023-02-28T16:35:22;6.13;;;4.50;;
2944;SDS011;1482;51.398;7.128;2023-02-28T16:37:48;6.90;;;4.00;;
2944;SDS011;1482;51.398;7.128;2023-02-28T16:40:16;7.37;;;4.60;;
2944;SDS011;1482;51.398;7.128;2023-02-28T16:42:45;6.07;;;4.30;;
2944;SDS011;1482;51.398;7.128;2023-02-28T16:45:17;7.90;;;5.13;;
2944;SDS011;1482;51.398;7.128;2023-02-28T16:47:46;3.67;;;3.37;;
2944;SDS011;1482;51.398;7.128;2023-02-28T16:50:14;5.40;;;4.00;;
2944;SDS011;1482;51.398;7.128;2023-02-28T16:52:41;5.40;;;4.90;;
2944;SDS011;1482;51.398;7.128;2023-02-28T16:55:07;6.40;;;4.47;;
2944;SDS011;1482;51.398;7.128;2023-02-28T16:57:33;6.10;;;3.70;;
2944;SDS011;1482;51.398;7.128;2023-02-28T16:59:58;8.83;;;4.10;;
2944;SDS011;1482;51.398;7.128;2023-02-28T17:02:24;4.80;;;4.40;;
2944;SDS011;1482;51.398;7.128;2023-02-28T17:04:49;4.00;;;3.70;;
2944;SDS011;1482;51.398;7.128;2023-02-28T17:07:16;4.80;;;3.90;;
2944;SDS011;1482;51.398;7.128;2023-02-28T17:09:42;4.40;;;4.00;;
2944;SDS011;1482;51.398;7.128;2023-02-28T17:12:08;4.57;;;3.80;;
2944;SDS011;1482;51.398;7.128;2023-02-28T17:14:35;6.83;;;3.90;;
2944;SDS011;1482;51.398;7.128;2023-02-28T17:17:01;7.37;;;3.77;;
2944;SDS011;1482;51.398;7.128;2023-02-28T17:19:28;5.70;;;4.17;;
2944;SDS011;1482;51.398;7.128;2023-02-28T17:21:54;5.00;;;3.37;;
2944;SDS011;1482;51.398;7.128;2023-02-28T17:24:19;9.37;;;3.60;;
2944;SDS011;1482;51.398;7.128;2023-02-28T17:26:45;4.50;;;3.97;;
2944;SDS011;1482;51.398;7.128;2023-02-28T17:29:17;3.83;;;3.27;;
2944;SDS011;1482;51.398;7.128;2023-02-28T17:31:46;6.60;;;4.57;;
2944;SDS011;1482;51.398;7.128;2023-02-28T17:34:12;5.53;;;4.30;;
2944;SDS011;1482;51.398;7.128;2023-02-28T17:36:43;8.67;;;3.73;;
2944;SDS011;1482;51.398;7.128;2023-02-28T17:39:13;8.47;;;4.27;;
2944;SDS011;1482;51.398;7.128;2023-02-28T17:41:40;7.27;;;3.90;;
2944;SDS011;1482;51.398;7.128;2023-02-28T17:44:06;5.87;;;3.27;;
2944;SDS011;1482;51.398;7.128;2023-02-28T17:46:33;14.80;;;5.40;;
2944;SDS011;1482;51.398;7.128;2023-02-28T17:48:59;6.73;;;5.27;;
2944;SDS011;1482;51.398;7.128;2023-02-28T17:51:25;4.90;;;4.50;;